createdAt,value
2022-09-17T00:01:29.658Z,9.18
2022-09-17T00:04:02.190Z,9.11
2022-09-17T00:06:30.839Z,9.02
2022-09-17T00:08:58.408Z,8.62
2022-09-17T00:11:29.526Z,8.94
2022-09-17T00:14:01.036Z,8.92
2022-09-17T00:16:32.447Z,8.93
2022-09-17T00:19:01.093Z,8.92
2022-09-17T00:21:29.714Z,8.85
2022-09-17T00:23:59.273Z,8.85
2022-09-17T00:26:27.639Z,8.57
2022-09-17T00:28:56.483Z,8.77
2022-09-17T00:31:24.259Z,8.72
2022-09-17T00:33:52.809Z,8.68
2022-09-17T00:36:22.185Z,8.63
2022-09-17T00:38:51.635Z,8.53
2022-09-17T00:41:19.906Z,8.47
2022-09-17T00:43:57.507Z,8.50
2022-09-17T00:46:34.590Z,8.49
2022-09-17T00:49:15.304Z,8.32
2022-09-17T00:51:50.091Z,8.40
2022-09-17T00:54:17.469Z,8.35
2022-09-17T00:56:44.863Z,8.32
2022-09-17T00:59:11.899Z,8.03
2022-09-17T01:01:39.263Z,8.26
2022-09-17T01:04:06.698Z,8.29
2022-09-17T01:06:46.567Z,8.30
2022-09-17T01:09:32.881Z,8.29
2022-09-17T01:12:26.142Z,8.26
2022-09-17T01:14:56.305Z,8.21
2022-09-17T01:17:50.995Z,8.15
2022-09-17T01:20:45.918Z,8.12
2022-09-17T01:23:49.764Z,8.07
2022-09-17T01:26:38.515Z,8.05
2022-09-17T01:29:23.963Z,8.01
2022-09-17T01:31:56.827Z,7.91
2022-09-17T01:34:40.075Z,7.79
2022-09-17T01:37:07.035Z,7.89
2022-09-17T01:39:50.623Z,7.83
2022-09-17T01:42:26.265Z,7.77
2022-09-17T01:45:05.308Z,7.78
2022-09-17T01:47:58.490Z,7.68
2022-09-17T01:50:31.363Z,7.69
2022-09-17T01:53:00.427Z,7.70
2022-09-17T01:55:33.788Z,7.56
2022-09-17T01:58:24.234Z,7.66
2022-09-17T02:00:53.591Z,7.63
2022-09-17T02:03:28.352Z,7.51
2022-09-17T02:06:13.175Z,7.58
2022-09-17T02:08:44.981Z,7.53
2022-09-17T02:11:17.652Z,7.53
2022-09-17T02:13:56.400Z,7.46
2022-09-17T02:16:27.399Z,7.46
2022-09-17T02:19:35.005Z,7.45
2022-09-17T02:22:19.977Z,7.43
2022-09-17T02:25:14.686Z,7.31
2022-09-17T02:28:06.166Z,7.38
2022-09-17T02:30:33.280Z,7.37
2022-09-17T02:33:03.081Z,7.35
2022-09-17T02:35:32.076Z,7.21
2022-09-17T02:38:00.578Z,7.30
2022-09-17T02:40:31.581Z,7.08
2022-09-17T02:43:25.266Z,7.26
2022-09-17T02:46:34.358Z,7.24
2022-09-17T02:49:11.132Z,7.22
2022-09-17T02:52:02.516Z,7.11
2022-09-17T02:54:30.929Z,7.01
2022-09-17T02:57:04.902Z,7.16
2022-09-17T02:59:47.726Z,7.17
2022-09-17T03:02:23.727Z,7.17
2022-09-17T03:04:52.969Z,7.14
2022-09-17T03:07:20.551Z,7.03
2022-09-17T03:09:47.625Z,7.13
2022-09-17T03:12:15.391Z,7.20
2022-09-17T03:14:42.835Z,7.24
2022-09-17T03:17:10.830Z,7.17
2022-09-17T03:19:38.156Z,7.23
2022-09-17T03:22:06.227Z,7.16
2022-09-17T03:24:33.310Z,7.19
2022-09-17T03:27:00.248Z,7.18
2022-09-17T03:29:27.594Z,7.20
2022-09-17T03:31:54.539Z,7.04
2022-09-17T03:34:22.087Z,7.05
2022-09-17T03:36:49.391Z,7.10
2022-09-17T03:39:17.185Z,7.16
2022-09-17T03:41:44.231Z,7.18
2022-09-17T03:44:11.353Z,7.17
2022-09-17T03:46:38.575Z,7.20
2022-09-17T03:49:05.828Z,7.21
2022-09-17T03:51:33.010Z,7.27
2022-09-17T03:54:00.466Z,7.24
2022-09-17T03:56:28.127Z,7.37
2022-09-17T03:59:01.921Z,7.43
2022-09-17T04:01:29.931Z,7.49
2022-09-17T04:03:57.200Z,7.47
2022-09-17T04:06:24.329Z,7.38
2022-09-17T04:08:51.543Z,7.62
2022-09-17T04:11:18.471Z,7.64
2022-09-17T04:13:45.978Z,7.60
2022-09-17T04:16:13.187Z,7.49
2022-09-17T04:18:40.221Z,7.67
2022-09-17T04:21:07.325Z,7.69
2022-09-17T04:23:34.503Z,7.64
2022-09-17T04:26:01.887Z,7.62
2022-09-17T04:28:28.925Z,7.55
2022-09-17T04:30:56.300Z,7.53
2022-09-17T04:33:24.221Z,7.49
2022-09-17T04:35:51.491Z,7.49
2022-09-17T04:38:20.683Z,7.48
2022-09-17T04:40:48.390Z,7.57
2022-09-17T04:43:15.960Z,7.50
2022-09-17T04:45:47.439Z,7.56
2022-09-17T04:48:14.896Z,7.46
2022-09-17T04:50:42.510Z,7.79
2022-09-17T04:53:10.020Z,8.09
2022-09-17T04:55:37.020Z,8.25
2022-09-17T04:58:04.653Z,8.38
2022-09-17T05:00:31.607Z,8.44
2022-09-17T05:02:58.639Z,8.55
2022-09-17T05:05:25.726Z,8.59
2022-09-17T05:07:53.631Z,8.72
2022-09-17T05:10:23.008Z,8.90
2022-09-17T05:12:55.714Z,8.99
2022-09-17T05:15:24.898Z,9.00
2022-09-17T05:17:52.653Z,9.02
2022-09-17T05:20:20.677Z,8.78
2022-09-17T05:22:53.974Z,8.94
2022-09-17T05:25:25.847Z,8.93
2022-09-17T05:27:54.079Z,9.00
2022-09-17T05:30:21.669Z,8.96
2022-09-17T05:32:49.437Z,9.06
2022-09-17T05:35:17.035Z,9.04
2022-09-17T05:37:44.222Z,9.00
2022-09-17T05:40:13.131Z,9.17
2022-09-17T05:42:40.600Z,9.23
2022-09-17T05:45:08.472Z,9.37
2022-09-17T05:47:35.948Z,9.53
2022-09-17T05:50:03.048Z,9.78
2022-09-17T05:52:30.784Z,9.81
2022-09-17T05:54:58.184Z,10.01
2022-09-17T05:57:25.559Z,10.02
2022-09-17T05:59:53.103Z,10.29
2022-09-17T06:02:20.225Z,10.36
2022-09-17T06:04:47.316Z,10.56
2022-09-17T06:07:14.477Z,10.66
2022-09-17T06:09:41.513Z,11.05
2022-09-17T06:12:09.252Z,11.28
2022-09-17T06:14:36.662Z,11.45
2022-09-17T06:17:03.751Z,11.74
2022-09-17T06:19:31.017Z,11.79
2022-09-17T06:21:58.485Z,11.86
2022-09-17T06:24:26.202Z,11.85
2022-09-17T06:26:53.143Z,11.82
2022-09-17T06:29:21.316Z,12.14
2022-09-17T06:31:49.995Z,12.97
2022-09-17T06:34:18.105Z,13.15
2022-09-17T06:36:46.018Z,13.29
2022-09-17T06:39:13.730Z,13.25
2022-09-17T06:41:44.498Z,13.01
2022-09-17T06:44:11.586Z,12.78
2022-09-17T06:46:38.991Z,12.94
2022-09-17T06:49:06.235Z,13.11
2022-09-17T06:51:33.932Z,13.08
2022-09-17T06:54:01.798Z,13.24
2022-09-17T06:56:29.206Z,13.30
2022-09-17T06:58:56.380Z,13.29
2022-09-17T07:01:23.484Z,13.65
2022-09-17T07:03:50.535Z,13.68
2022-09-17T07:06:18.087Z,13.91
2022-09-17T07:08:47.197Z,14.18
2022-09-17T07:11:16.178Z,14.27
2022-09-17T07:13:43.380Z,14.46
2022-09-17T07:16:10.973Z,14.44
2022-09-17T07:18:39.290Z,14.68
2022-09-17T07:21:08.153Z,15.03
2022-09-17T07:23:37.326Z,15.07
2022-09-17T07:26:07.671Z,15.25
2022-09-17T07:28:35.147Z,15.63
2022-09-17T07:31:06.556Z,16.32
2022-09-17T07:33:35.405Z,16.61
2022-09-17T07:36:06.041Z,16.93
2022-09-17T07:38:35.360Z,16.62
2022-09-17T07:41:16.784Z,16.42
2022-09-17T07:43:44.815Z,16.68
2022-09-17T07:46:17.495Z,17.32
2022-09-17T07:48:45.033Z,17.40
2022-09-17T07:51:20.257Z,17.21
2022-09-17T07:53:48.091Z,16.83
2022-09-17T07:56:16.441Z,16.26
2022-09-17T07:58:43.932Z,16.76
2022-09-17T08:01:12.889Z,16.75
2022-09-17T08:03:40.649Z,16.57
2022-09-17T08:06:13.783Z,16.44
2022-09-17T08:08:41.575Z,16.65
2022-09-17T08:11:18.143Z,17.25
2022-09-17T08:13:53.021Z,17.44
2022-09-17T08:16:21.658Z,17.23
2022-09-17T08:18:50.033Z,17.03
2022-09-17T08:21:21.675Z,17.02
2022-09-17T08:23:49.549Z,16.88
2022-09-17T08:26:22.992Z,16.78
2022-09-17T08:28:56.094Z,16.92
2022-09-17T08:31:25.479Z,16.83
2022-09-17T08:33:52.776Z,17.18
2022-09-17T08:36:21.306Z,17.44
2022-09-17T08:38:53.562Z,17.27
2022-09-17T08:41:27.719Z,17.57
2022-09-17T08:44:04.960Z,17.34
2022-09-17T08:46:37.918Z,17.05
2022-09-17T08:49:30.262Z,17.00
2022-09-17T08:52:22.347Z,17.67
2022-09-17T08:55:19.038Z,18.35
2022-09-17T08:58:01.656Z,18.09
2022-09-17T09:00:38.349Z,17.19
2022-09-17T09:03:42.027Z,17.38
2022-09-17T09:06:11.228Z,17.00
2022-09-17T09:08:45.773Z,17.71
2022-09-17T09:11:27.576Z,17.69
2022-09-17T09:14:14.935Z,17.74
2022-09-17T09:16:47.649Z,17.67
2022-09-17T09:19:27.233Z,17.32
2022-09-17T09:22:25.157Z,17.26
2022-09-17T09:25:24.435Z,17.47
2022-09-17T09:27:52.133Z,17.17
2022-09-17T09:30:23.845Z,17.01
2022-09-17T09:33:21.953Z,17.17
2022-09-17T09:35:49.297Z,17.59
2022-09-17T09:38:21.009Z,17.95
2022-09-17T09:40:57.018Z,17.24
2022-09-17T09:43:29.623Z,17.01
2022-09-17T09:46:08.411Z,17.19
2022-09-17T09:49:15.873Z,17.27
2022-09-17T09:52:03.421Z,17.25
2022-09-17T09:55:18.274Z,16.91
2022-09-17T09:57:50.555Z,16.71
2022-09-17T10:00:27.192Z,16.36
2022-09-17T10:03:01.889Z,16.16
2022-09-17T10:05:29.504Z,16.68
2022-09-17T10:07:57.823Z,17.61
2022-09-17T10:10:25.658Z,17.91
2022-09-17T10:13:06.381Z,17.26
2022-09-17T10:15:33.692Z,17.22
2022-09-17T10:18:20.411Z,17.86
2022-09-17T10:20:58.117Z,17.79
2022-09-17T10:23:32.258Z,17.02
2022-09-17T10:26:00.429Z,16.40
2022-09-17T10:28:44.233Z,16.45
2022-09-17T10:31:11.678Z,16.54
2022-09-17T10:33:52.811Z,16.74
2022-09-17T10:36:51.382Z,17.31
2022-09-17T10:39:46.787Z,17.40
2022-09-17T10:42:18.658Z,17.62
2022-09-17T10:44:55.314Z,17.23
2022-09-17T10:47:29.137Z,16.65
2022-09-17T10:49:58.095Z,16.75
2022-09-17T10:52:31.304Z,17.23
2022-09-17T10:55:36.182Z,17.78
2022-09-17T10:58:07.482Z,18.64
2022-09-17T11:00:41.831Z,19.83
2022-09-17T11:03:49.039Z,18.76
2022-09-17T11:06:34.487Z,17.99
2022-09-17T11:09:35.027Z,17.65
2022-09-17T11:12:42.301Z,17.04
2022-09-17T11:15:37.018Z,17.17
2022-09-17T11:18:13.048Z,17.03
2022-09-17T11:21:17.693Z,16.97
2022-09-17T11:24:33.576Z,18.10
2022-09-17T11:27:00.677Z,18.64
2022-09-17T11:30:04.703Z,18.77
2022-09-17T11:32:35.008Z,19.00
2022-09-17T11:35:21.512Z,18.41
2022-09-17T11:38:11.376Z,17.24
2022-09-17T11:40:47.367Z,16.63
2022-09-17T11:43:14.587Z,16.47
2022-09-17T11:46:05.399Z,16.35
2022-09-17T11:48:46.681Z,16.11
2022-09-17T11:51:27.067Z,16.05
2022-09-17T11:54:06.857Z,16.14
2022-09-17T11:56:41.608Z,16.13
2022-09-17T11:59:14.871Z,16.07
2022-09-17T12:01:52.346Z,15.88
2022-09-17T12:04:25.452Z,15.73
2022-09-17T12:07:29.836Z,15.46
2022-09-17T12:10:09.374Z,15.49
2022-09-17T12:12:50.526Z,15.50
2022-09-17T12:15:28.318Z,15.47
2022-09-17T12:18:31.870Z,15.60
2022-09-17T12:21:02.750Z,15.69
2022-09-17T12:23:48.659Z,15.87
2022-09-17T12:26:24.907Z,15.78
2022-09-17T12:29:08.684Z,16.39
2022-09-17T12:31:50.061Z,16.77
2022-09-17T12:34:53.635Z,16.54
2022-09-17T12:38:04.554Z,16.39
2022-09-17T12:40:49.110Z,16.28
2022-09-17T12:43:51.800Z,16.12
2022-09-17T12:46:39.268Z,15.90
2022-09-17T12:49:27.665Z,15.76
2022-09-17T12:51:59.571Z,15.68
2022-09-17T12:55:11.249Z,15.43
2022-09-17T12:57:51.092Z,15.52
2022-09-17T13:00:18.326Z,15.32
2022-09-17T13:02:54.291Z,15.33
2022-09-17T13:05:42.963Z,15.35
2022-09-17T13:08:28.658Z,15.44
2022-09-17T13:11:27.524Z,16.00
2022-09-17T13:14:04.396Z,16.77
2022-09-17T13:16:34.856Z,16.79
2022-09-17T13:19:21.793Z,16.70
2022-09-17T13:22:07.298Z,16.88
2022-09-17T13:24:35.766Z,17.20
2022-09-17T13:27:05.178Z,17.20
2022-09-17T13:29:47.389Z,16.69
2022-09-17T13:32:32.733Z,16.18
2022-09-17T13:35:12.286Z,15.85
2022-09-17T13:37:57.168Z,15.64
2022-09-17T13:40:27.231Z,15.62
2022-09-17T13:43:13.730Z,15.55
2022-09-17T13:46:16.983Z,15.43
2022-09-17T13:48:49.803Z,15.45
2022-09-17T13:51:32.559Z,15.59
2022-09-17T13:54:06.005Z,15.63
2022-09-17T13:56:43.162Z,15.98
2022-09-17T13:59:26.667Z,17.00
2022-09-17T14:02:03.031Z,17.02
2022-09-17T14:04:42.328Z,16.63
2022-09-17T14:07:21.551Z,16.77
2022-09-17T14:09:53.270Z,16.91
2022-09-17T14:12:41.326Z,16.72
2022-09-17T14:15:36.648Z,16.21
2022-09-17T14:18:28.918Z,16.13
2022-09-17T14:21:09.743Z,16.19
2022-09-17T14:23:50.846Z,15.80
2022-09-17T14:26:45.461Z,15.79
2022-09-17T14:29:31.418Z,15.71
2022-09-17T14:31:58.811Z,15.60
2022-09-17T14:34:27.355Z,15.48
2022-09-17T14:36:57.327Z,15.33
2022-09-17T14:39:35.164Z,15.24
2022-09-17T14:42:05.444Z,14.80
2022-09-17T14:44:35.223Z,14.97
2022-09-17T14:47:07.201Z,14.97
2022-09-17T14:50:03.438Z,14.91
2022-09-17T14:52:32.767Z,14.90
2022-09-17T14:55:19.706Z,14.93
2022-09-17T14:57:52.369Z,14.96
2022-09-17T15:00:26.379Z,14.74
2022-09-17T15:02:56.404Z,14.63
2022-09-17T15:05:34.161Z,14.58
2022-09-17T15:08:11.118Z,14.61
2022-09-17T15:11:02.380Z,14.45
2022-09-17T15:13:32.914Z,14.42
2022-09-17T15:16:08.099Z,14.10
2022-09-17T15:18:48.457Z,14.09
2022-09-17T15:21:35.385Z,14.13
2022-09-17T15:24:19.655Z,13.99
2022-09-17T15:26:52.257Z,13.95
2022-09-17T15:29:29.429Z,13.88
2022-09-17T15:31:58.588Z,13.83
2022-09-17T15:34:26.220Z,13.48
2022-09-17T15:37:08.574Z,13.58
2022-09-17T15:39:50.715Z,13.38
2022-09-17T15:42:29.071Z,13.55
2022-09-17T15:45:17.991Z,13.57
2022-09-17T15:48:01.863Z,13.31
2022-09-17T15:50:36.890Z,13.44
2022-09-17T15:53:10.483Z,13.39
2022-09-17T15:55:46.028Z,13.18
2022-09-17T15:58:24.516Z,13.29
2022-09-17T16:01:16.814Z,13.21
2022-09-17T16:03:44.457Z,13.17
2022-09-17T16:06:28.030Z,13.16
2022-09-17T16:09:04.486Z,12.97
2022-09-17T16:11:33.042Z,13.18
2022-09-17T16:14:01.442Z,13.21
2022-09-17T16:16:35.967Z,13.24
2022-09-17T16:19:06.423Z,13.15
2022-09-17T16:21:33.919Z,13.22
2022-09-17T16:24:01.246Z,13.15
2022-09-17T16:26:31.629Z,13.01
2022-09-17T16:29:04.815Z,12.90
2022-09-17T16:31:33.234Z,12.64
2022-09-17T16:34:03.841Z,12.61
2022-09-17T16:36:32.394Z,12.72
2022-09-17T16:38:59.863Z,12.63
2022-09-17T16:41:27.091Z,12.35
2022-09-17T16:43:54.279Z,12.46
2022-09-17T16:46:21.428Z,12.26
2022-09-17T16:48:52.501Z,12.30
2022-09-17T16:51:20.316Z,12.19
2022-09-17T16:53:47.344Z,12.16
2022-09-17T16:56:15.810Z,12.13
2022-09-17T16:58:43.183Z,11.95
2022-09-17T17:01:12.198Z,11.86
2022-09-17T17:03:39.786Z,11.94
2022-09-17T17:06:07.641Z,11.87
2022-09-17T17:08:34.801Z,11.81
2022-09-17T17:11:01.922Z,11.72
2022-09-17T17:13:28.980Z,11.59
2022-09-17T17:15:56.597Z,11.61
2022-09-17T17:18:24.768Z,11.53
2022-09-17T17:20:52.638Z,11.46
2022-09-17T17:23:19.950Z,11.37
2022-09-17T17:25:47.267Z,11.36
2022-09-17T17:28:15.163Z,11.36
2022-09-17T17:30:46.820Z,11.25
2022-09-17T17:33:14.954Z,11.25
2022-09-17T17:35:42.502Z,11.19
2022-09-17T17:38:09.827Z,11.07
2022-09-17T17:40:38.486Z,11.03
2022-09-17T17:43:05.684Z,10.91
2022-09-17T17:45:33.268Z,10.78
2022-09-17T17:48:00.363Z,10.89
2022-09-17T17:50:27.347Z,10.87
2022-09-17T17:52:55.759Z,10.93
2022-09-17T17:55:23.193Z,10.77
2022-09-17T17:58:00.406Z,10.86
2022-09-17T18:00:29.239Z,10.11
2022-09-17T18:02:56.583Z,10.69
2022-09-17T18:05:24.072Z,10.69
2022-09-17T18:07:51.235Z,10.52
2022-09-17T18:10:19.844Z,10.60
2022-09-17T18:12:50.718Z,10.55
2022-09-17T18:15:18.259Z,10.51
2022-09-17T18:17:48.090Z,10.37
2022-09-17T18:20:15.442Z,10.43
2022-09-17T18:22:42.428Z,10.41
2022-09-17T18:25:10.111Z,10.41
2022-09-17T18:27:37.820Z,10.39
2022-09-17T18:30:05.277Z,10.10
2022-09-17T18:32:33.870Z,10.09
2022-09-17T18:35:01.530Z,10.24
2022-09-17T18:37:29.729Z,10.30
2022-09-17T18:39:58.844Z,10.23
2022-09-17T18:42:26.864Z,10.25
2022-09-17T18:44:54.190Z,10.27
2022-09-17T18:47:21.323Z,10.07
2022-09-17T18:49:48.650Z,10.10
2022-09-17T18:52:16.075Z,9.98
2022-09-17T18:54:46.082Z,10.22
2022-09-17T18:57:13.939Z,10.10
2022-09-17T18:59:41.433Z,10.19
2022-09-17T19:02:12.993Z,10.11
2022-09-17T19:04:40.101Z,10.13
2022-09-17T19:07:07.461Z,10.08
2022-09-17T19:09:34.619Z,10.05
2022-09-17T19:12:01.776Z,10.04
2022-09-17T19:14:28.877Z,9.83
2022-09-17T19:16:55.927Z,9.92
2022-09-17T19:19:23.165Z,9.95
2022-09-17T19:21:50.869Z,9.80
2022-09-17T19:24:18.207Z,9.89
2022-09-17T19:26:50.651Z,9.93
2022-09-17T19:29:18.108Z,9.93
2022-09-17T19:31:45.679Z,9.82
2022-09-17T19:34:12.998Z,9.83
2022-09-17T19:36:39.939Z,9.77
2022-09-17T19:39:07.077Z,9.66
2022-09-17T19:41:36.441Z,9.58
2022-09-17T19:44:04.196Z,9.57
2022-09-17T19:46:32.458Z,9.45
2022-09-17T19:49:00.664Z,9.50
2022-09-17T19:51:32.280Z,9.54
2022-09-17T19:53:59.377Z,9.47
2022-09-17T19:56:28.273Z,9.26
2022-09-17T19:58:56.814Z,9.47
2022-09-17T20:01:24.800Z,9.46
2022-09-17T20:03:53.493Z,9.36
2022-09-17T20:06:24.203Z,9.45
2022-09-17T20:08:54.514Z,9.42
2022-09-17T20:11:24.514Z,9.44
2022-09-17T20:14:08.737Z,9.41
2022-09-17T20:16:38.473Z,9.37
2022-09-17T20:19:07.378Z,9.30
2022-09-17T20:21:35.024Z,9.26
2022-09-17T20:24:02.959Z,9.27
2022-09-17T20:26:29.987Z,9.21
2022-09-17T20:28:57.665Z,9.11
2022-09-17T20:31:27.797Z,9.14
2022-09-17T20:34:00.165Z,9.14
2022-09-17T20:36:33.747Z,9.12
2022-09-17T20:39:21.800Z,9.01
2022-09-17T20:41:48.335Z,9.08
2022-09-17T20:44:15.459Z,9.05
2022-09-17T20:46:43.866Z,9.01
2022-09-17T20:49:11.159Z,8.81
2022-09-17T20:51:38.315Z,8.94
2022-09-17T20:54:07.839Z,8.88
2022-09-17T20:56:36.144Z,8.98
2022-09-17T20:59:14.818Z,8.91
2022-09-17T21:01:45.173Z,8.95
2022-09-17T21:04:15.436Z,8.79
2022-09-17T21:06:43.803Z,8.83
2022-09-17T21:09:15.970Z,8.85
2022-09-17T21:11:47.948Z,8.84
2022-09-17T21:14:16.065Z,8.82
2022-09-17T21:16:43.559Z,8.81
2022-09-17T21:19:12.424Z,8.60
2022-09-17T21:21:39.830Z,8.67
2022-09-17T21:24:10.384Z,8.72
2022-09-17T21:26:37.994Z,8.69
2022-09-17T21:29:05.249Z,8.77
2022-09-17T21:31:34.239Z,8.60
2022-09-17T21:34:04.070Z,8.70
2022-09-17T21:36:33.704Z,8.68
2022-09-17T21:39:21.093Z,8.71
2022-09-17T21:41:48.894Z,8.69
2022-09-17T21:44:16.240Z,8.69
2022-09-17T21:46:43.362Z,8.66
2022-09-17T21:49:11.547Z,8.64
2022-09-17T21:51:40.769Z,8.63
2022-09-17T21:54:15.433Z,8.67
2022-09-17T21:56:43.448Z,8.65
2022-09-17T21:59:13.469Z,8.64
2022-09-17T22:01:44.089Z,8.57
2022-09-17T22:04:14.066Z,8.56
2022-09-17T22:06:42.493Z,8.55
2022-09-17T22:09:21.539Z,8.55
2022-09-17T22:11:49.270Z,8.26
2022-09-17T22:14:19.806Z,8.38
2022-09-17T22:16:49.938Z,8.44
2022-09-17T22:19:18.103Z,8.45
2022-09-17T22:21:48.511Z,8.44
2022-09-17T22:24:16.408Z,8.41
2022-09-17T22:26:46.734Z,8.38
2022-09-17T22:29:16.751Z,8.32
2022-09-17T22:31:44.781Z,8.30
2022-09-17T22:34:15.182Z,8.25
2022-09-17T22:36:42.404Z,8.30
2022-09-17T22:39:10.225Z,8.23
2022-09-17T22:41:44.550Z,8.24
2022-09-17T22:44:16.289Z,8.19
2022-09-17T22:46:46.752Z,7.99
2022-09-17T22:49:15.057Z,8.19
2022-09-17T22:51:43.687Z,8.16
2022-09-17T22:54:12.992Z,8.17
2022-09-17T22:56:41.459Z,8.00
2022-09-17T22:59:09.896Z,7.91
2022-09-17T23:01:37.438Z,7.99
2022-09-17T23:04:05.561Z,8.13
2022-09-17T23:06:35.791Z,7.80
2022-09-17T23:09:03.292Z,8.15
2022-09-17T23:11:33.263Z,8.14
2022-09-17T23:14:04.406Z,8.09
2022-09-17T23:16:37.369Z,8.13
2022-09-17T23:19:04.887Z,7.92
2022-09-17T23:21:32.063Z,8.13
2022-09-17T23:24:00.038Z,8.13
2022-09-17T23:26:28.003Z,8.10
2022-09-17T23:28:55.711Z,8.04
2022-09-17T23:31:25.678Z,8.07
2022-09-17T23:33:54.129Z,8.02
2022-09-17T23:36:29.836Z,7.99
2022-09-17T23:38:58.584Z,8.01
2022-09-17T23:41:29.631Z,7.99
2022-09-17T23:43:58.905Z,8.03
2022-09-17T23:46:28.580Z,8.02
2022-09-17T23:48:55.855Z,8.00
2022-09-17T23:51:24.883Z,7.78
2022-09-17T23:53:52.321Z,7.88
2022-09-17T23:56:21.648Z,7.98
2022-09-17T23:58:50.035Z,7.92
